createdAt,value
2018-06-01T00:00:30.537Z,59.41
2018-06-01T00:01:30.632Z,59.51
2018-06-01T00:02:30.653Z,59.12
2018-06-01T00:03:30.690Z,59.12
2018-06-01T00:04:31.030Z,59.31
2018-06-01T00:05:30.715Z,59.22
2018-06-01T00:06:30.757Z,59.22
2018-06-01T00:07:30.829Z,59.22
2018-06-01T00:08:30.812Z,59.41
2018-06-01T00:09:30.846Z,59.51
2018-06-01T00:10:30.879Z,59.51
2018-06-01T00:11:31.268Z,59.31
2018-06-01T00:12:31.007Z,59.70
2018-06-01T00:13:31.048Z,59.41
2018-06-01T00:14:31.096Z,59.87
2018-06-01T00:15:31.061Z,59.97
2018-06-01T00:16:31.090Z,59.58
2018-06-01T00:17:31.127Z,60.16
2018-06-01T00:18:31.510Z,60.25
2018-06-01T00:19:31.189Z,59.77
2018-06-01T00:20:31.281Z,59.87
2018-06-01T00:21:31.262Z,59.97
2018-06-01T00:22:31.342Z,60.25
2018-06-01T00:23:31.380Z,59.67
2018-06-01T00:24:31.417Z,59.77
2018-06-01T00:25:31.751Z,59.97
2018-06-01T00:26:31.432Z,59.97
2018-06-01T00:27:31.616Z,59.97
2018-06-01T00:28:31.552Z,59.77
2018-06-01T00:29:31.598Z,59.90
2018-06-01T00:30:31.618Z,59.97
2018-06-01T00:31:31.608Z,59.80
2018-06-01T00:32:31.992Z,59.67
2018-06-01T00:33:31.725Z,60.16
2018-06-01T00:34:31.711Z,60.25
2018-06-01T00:35:31.747Z,60.16
2018-06-01T00:36:31.777Z,60.45
2018-06-01T00:37:31.813Z,60.16
2018-06-01T00:38:31.905Z,59.77
2018-06-01T00:39:32.235Z,59.97
2018-06-01T00:40:31.963Z,59.67
2018-06-01T00:41:32.010Z,60.25
2018-06-01T00:42:31.987Z,59.87
2018-06-01T00:43:32.022Z,59.77
2018-06-01T00:44:32.057Z,60.16
2018-06-01T00:45:32.438Z,60.45
2018-06-01T00:46:32.171Z,59.97
2018-06-01T00:47:32.154Z,60.35
2018-06-01T00:48:32.186Z,60.35
2018-06-01T00:49:32.276Z,60.06
2018-06-01T00:50:32.310Z,59.87
2018-06-01T00:51:32.641Z,59.80
2018-06-01T00:52:32.381Z,59.70
2018-06-01T00:53:32.364Z,59.80
2018-06-01T00:54:32.403Z,59.61
2018-06-01T00:55:32.431Z,59.77
2018-06-01T00:56:32.467Z,59.80
2018-06-01T00:57:32.861Z,60.09
2018-06-01T00:58:32.539Z,59.80
2018-06-01T00:59:32.574Z,59.70
2018-06-01T01:00:32.653Z,60.00
2018-06-01T01:01:32.635Z,59.90
2018-06-01T01:02:32.670Z,59.90
2018-06-01T01:03:33.056Z,59.80
2018-06-01T01:04:32.740Z,59.90
2018-06-01T01:05:32.775Z,60.35
2018-06-01T01:06:32.815Z,60.09
2018-06-01T01:07:32.849Z,60.25
2018-06-01T01:08:32.927Z,60.35
2018-06-01T01:09:33.264Z,60.25
2018-06-01T01:10:32.948Z,60.25
2018-06-01T01:11:33.031Z,60.35
2018-06-01T01:12:33.022Z,60.35
2018-06-01T01:13:33.054Z,60.45
2018-06-01T01:14:33.132Z,60.45
2018-06-01T01:15:33.467Z,60.45
2018-06-01T01:16:33.150Z,60.74
2018-06-01T01:17:33.235Z,60.84
2018-06-01T01:18:33.273Z,60.74
2018-06-01T01:19:33.252Z,60.84
2018-06-01T01:20:33.293Z,60.64
2018-06-01T01:21:33.671Z,60.64
2018-06-01T01:22:33.356Z,61.13
2018-06-01T01:23:33.441Z,61.32
2018-06-01T01:24:33.430Z,61.19
2018-06-01T01:25:33.511Z,61.29
2018-06-01T01:26:33.491Z,61.00
2018-06-01T01:27:33.886Z,61.39
2018-06-01T01:28:33.563Z,62.07
2018-06-01T01:29:33.596Z,61.88
2018-06-01T01:30:33.736Z,62.26
2018-06-01T01:31:33.673Z,62.26
2018-06-01T01:32:33.729Z,61.98
2018-06-01T01:33:34.090Z,61.98
2018-06-01T01:34:33.771Z,61.78
2018-06-01T01:35:33.889Z,62.07
2018-06-01T01:36:33.887Z,62.65
2018-06-01T01:37:33.920Z,62.55
2018-06-01T01:38:33.901Z,62.46
2018-06-01T01:39:34.287Z,62.72
2018-06-01T01:40:34.034Z,62.13
2018-06-01T01:41:34.105Z,62.43
2018-06-01T01:42:34.039Z,62.55
2018-06-01T01:43:34.096Z,62.36
2018-06-01T01:44:34.107Z,62.26
2018-06-01T01:45:34.492Z,62.46
2018-06-01T01:46:34.183Z,62.52
2018-06-01T01:47:34.206Z,62.52
2018-06-01T01:48:34.258Z,62.82
2018-06-01T01:49:34.279Z,62.82
2018-06-01T01:50:34.323Z,62.62
2018-06-01T01:51:34.701Z,63.10
2018-06-01T01:52:34.381Z,63.01
2018-06-01T01:53:34.464Z,62.72
2018-06-01T01:54:34.498Z,62.82
2018-06-01T01:55:34.484Z,62.85
2018-06-01T01:56:34.868Z,62.55
2018-06-01T01:57:34.927Z,62.55
2018-06-01T01:58:34.603Z,62.55
2018-06-01T01:59:34.616Z,62.26
2018-06-01T02:00:34.664Z,62.65
2018-06-01T02:01:34.694Z,62.46
2018-06-01T02:02:34.772Z,62.26
2018-06-01T02:03:34.801Z,62.43
2018-06-01T02:04:35.139Z,62.55
2018-06-01T02:05:34.873Z,62.55
2018-06-01T02:06:35.108Z,62.65
2018-06-01T02:07:34.939Z,62.55
2018-06-01T02:08:34.973Z,62.65
2018-06-01T02:09:34.965Z,62.55
2018-06-01T02:10:34.991Z,62.65
2018-06-01T02:11:35.375Z,62.07
2018-06-01T02:12:35.075Z,62.26
2018-06-01T02:13:35.156Z,62.36
2018-06-01T02:14:35.133Z,62.26
2018-06-01T02:15:35.309Z,62.26
2018-06-01T02:16:35.253Z,62.46
2018-06-01T02:17:35.284Z,62.36
2018-06-01T02:18:35.617Z,62.26
2018-06-01T02:19:35.300Z,62.55
2018-06-01T02:20:35.331Z,62.07
2018-06-01T02:21:35.379Z,62.07
2018-06-01T02:22:35.402Z,61.98
2018-06-01T02:23:35.432Z,62.07
2018-06-01T02:24:35.518Z,62.26
2018-06-01T02:25:35.864Z,62.07
2018-06-01T02:26:35.533Z,61.68
2018-06-01T02:27:35.573Z,61.78
2018-06-01T02:28:35.602Z,61.78
2018-06-01T02:29:35.640Z,62.07
2018-06-01T02:30:35.741Z,62.07
2018-06-01T02:31:35.756Z,61.88
2018-06-01T02:32:36.146Z,62.07
2018-06-01T02:33:35.788Z,61.98
2018-06-01T02:34:35.884Z,61.75
2018-06-01T02:35:35.867Z,61.88
2018-06-01T02:36:35.885Z,61.65
2018-06-01T02:37:35.966Z,61.78
2018-06-01T02:38:35.996Z,62.04
2018-06-01T02:39:36.332Z,62.33
2018-06-01T02:40:36.061Z,62.16
2018-06-01T02:41:36.048Z,61.94
2018-06-01T02:42:36.080Z,61.94
2018-06-01T02:43:36.112Z,62.04
2018-06-01T02:44:36.148Z,62.52
2018-06-01T02:45:36.233Z,62.52
2018-06-01T02:46:36.600Z,62.33
2018-06-01T02:47:36.308Z,62.72
2018-06-01T02:48:36.333Z,63.01
2018-06-01T02:49:36.317Z,62.91
2018-06-01T02:50:36.406Z,62.72
2018-06-01T02:51:36.436Z,62.62
2018-06-01T02:52:36.420Z,62.72
2018-06-01T02:53:36.801Z,62.82
2018-06-01T02:54:36.489Z,62.91
2018-06-01T02:55:36.532Z,62.82
2018-06-01T02:56:36.554Z,63.01
2018-06-01T02:57:36.592Z,63.20
2018-06-01T02:58:36.622Z,62.69
2018-06-01T02:59:36.659Z,62.59
2018-06-01T03:00:37.102Z,63.01
2018-06-01T03:01:36.725Z,63.01
2018-06-01T03:02:36.810Z,62.91
2018-06-01T03:03:36.841Z,62.13
2018-06-01T03:04:36.907Z,62.23
2018-06-01T03:05:36.862Z,62.33
2018-06-01T03:06:36.952Z,62.33
2018-06-01T03:07:37.342Z,62.43
2018-06-01T03:08:37.069Z,62.52
2018-06-01T03:09:37.054Z,62.62
2018-06-01T03:10:37.029Z,62.52
2018-06-01T03:11:37.110Z,62.43
2018-06-01T03:12:37.156Z,62.43
2018-06-01T03:13:37.226Z,62.52
2018-06-01T03:14:37.547Z,62.33
2018-06-01T03:15:37.277Z,62.72
2018-06-01T03:16:37.302Z,62.43
2018-06-01T03:17:37.325Z,62.33
2018-06-01T03:18:37.299Z,62.13
2018-06-01T03:19:37.538Z,62.91
2018-06-01T03:20:37.382Z,62.91
2018-06-01T03:21:37.775Z,62.82
2018-06-01T03:22:37.491Z,62.79
2018-06-01T03:23:37.756Z,62.62
2018-06-01T03:24:37.502Z,62.72
2018-06-01T03:25:37.589Z,63.10
2018-06-01T03:26:37.599Z,62.82
2018-06-01T03:27:37.980Z,62.98
2018-06-01T03:28:37.638Z,62.82
2018-06-01T03:29:37.675Z,62.82
2018-06-01T03:30:37.753Z,62.72
2018-06-01T03:31:37.821Z,62.82
2018-06-01T03:32:37.789Z,62.72
2018-06-01T03:33:38.156Z,62.72
2018-06-01T03:34:37.838Z,62.91
2018-06-01T03:35:37.925Z,63.01
2018-06-01T03:36:37.907Z,63.01
2018-06-01T03:37:37.942Z,62.79
2018-06-01T03:38:37.975Z,63.37
2018-06-01T03:39:38.445Z,63.40
2018-06-01T03:40:38.042Z,62.82
2018-06-01T03:41:38.136Z,62.62
2018-06-01T03:42:38.161Z,62.82
2018-06-01T03:43:38.198Z,62.33
2018-06-01T03:44:38.218Z,62.62
2018-06-01T03:45:38.509Z,62.04
2018-06-01T03:46:38.322Z,62.36
2018-06-01T03:47:38.284Z,61.78
2018-06-01T03:48:38.311Z,61.78
2018-06-01T03:49:38.597Z,61.49
2018-06-01T03:50:38.428Z,61.78
2018-06-01T03:51:38.762Z,61.19
2018-06-01T03:52:38.495Z,61.19
2018-06-01T03:53:38.518Z,61.19
2018-06-01T03:54:38.587Z,61.29
2018-06-01T03:55:38.547Z,60.74
2018-06-01T03:56:38.633Z,60.74
2018-06-01T03:57:38.916Z,60.55
2018-06-01T03:58:38.657Z,60.84
2018-06-01T03:59:38.763Z,60.84
2018-06-01T04:00:38.719Z,60.64
2018-06-01T04:01:38.765Z,60.55
2018-06-01T04:02:38.791Z,60.06
2018-06-01T04:03:39.191Z,60.45
2018-06-01T04:04:38.858Z,60.25
2018-06-01T04:05:38.982Z,59.97
2018-06-01T04:06:39.005Z,59.80
2018-06-01T04:07:38.965Z,59.80
2018-06-01T04:08:39.069Z,59.90
2018-06-01T04:09:39.397Z,59.51
2018-06-01T04:10:39.070Z,60.00
2018-06-01T04:11:39.105Z,59.90
2018-06-01T04:12:39.178Z,59.70
2018-06-01T04:13:39.169Z,59.80
2018-06-01T04:14:39.256Z,59.61
2018-06-01T04:15:39.590Z,59.51
2018-06-01T04:16:39.272Z,59.12
2018-06-01T04:17:39.359Z,59.22
2018-06-01T04:18:39.339Z,59.22
2018-06-01T04:19:39.373Z,59.51
2018-06-01T04:20:39.412Z,59.31
2018-06-01T04:21:39.793Z,59.03
2018-06-01T04:22:39.476Z,59.03
2018-06-01T04:23:39.509Z,59.12
2018-06-01T04:24:39.544Z,59.31
2018-06-01T04:25:39.638Z,59.22
2018-06-01T04:26:39.616Z,59.03
2018-06-01T04:27:40.001Z,59.31
2018-06-01T04:28:39.733Z,59.22
2018-06-01T04:29:39.720Z,59.31
2018-06-01T04:30:39.767Z,59.12
2018-06-01T04:31:39.849Z,58.73
2018-06-01T04:32:39.871Z,58.93
2018-06-01T04:33:40.218Z,58.83
2018-06-01T04:34:39.888Z,58.73
2018-06-01T04:35:40.005Z,59.03
2018-06-01T04:36:40.030Z,59.03
2018-06-01T04:37:39.999Z,58.93
2018-06-01T04:38:40.025Z,59.22
2018-06-01T04:39:40.412Z,58.93
2018-06-01T04:40:40.112Z,59.12
2018-06-01T04:41:40.138Z,59.12
2018-06-01T04:42:40.164Z,58.95
2018-06-01T04:43:40.311Z,59.22
2018-06-01T04:44:40.233Z,58.95
2018-06-01T04:45:40.387Z,58.86
2018-06-01T04:46:40.683Z,59.25
2018-06-01T04:47:40.336Z,58.76
2018-06-01T04:48:40.421Z,58.47
2018-06-01T04:49:40.413Z,58.64
2018-06-01T04:50:40.543Z,58.54
2018-06-01T04:51:40.576Z,58.47
2018-06-01T04:52:40.520Z,58.95
2018-06-01T04:53:40.848Z,58.47
2018-06-01T04:54:40.593Z,58.76
2018-06-01T04:55:40.613Z,58.67
2018-06-01T04:56:40.699Z,58.67
2018-06-01T04:57:40.787Z,58.67
2018-06-01T04:58:40.716Z,58.67
2018-06-01T04:59:40.857Z,58.76
2018-06-01T05:00:41.244Z,58.57
2018-06-01T05:01:40.882Z,58.57
2018-06-01T05:02:40.855Z,58.57
2018-06-01T05:03:41.004Z,58.67
2018-06-01T05:04:40.995Z,58.57
2018-06-01T05:05:40.961Z,58.67
2018-06-01T05:06:41.032Z,58.57
2018-06-01T05:07:41.379Z,58.57
2018-06-01T05:08:41.065Z,58.37
2018-06-01T05:09:41.153Z,58.47
2018-06-01T05:10:41.136Z,58.47
2018-06-01T05:11:41.280Z,58.76
2018-06-01T05:12:41.251Z,58.37
2018-06-01T05:13:41.263Z,58.86
2018-06-01T05:14:41.621Z,58.67
2018-06-01T05:15:41.449Z,58.76
2018-06-01T05:16:41.491Z,58.47
2018-06-01T05:17:41.380Z,58.67
2018-06-01T05:18:41.521Z,58.67
2018-06-01T05:19:41.446Z,58.67
2018-06-01T05:20:41.540Z,58.67
2018-06-01T05:21:41.907Z,58.67
2018-06-01T05:22:41.549Z,58.67
2018-06-01T05:23:41.641Z,58.67
2018-06-01T05:24:41.633Z,58.67
2018-06-01T05:25:41.708Z,58.37
2018-06-01T05:26:41.689Z,58.67
2018-06-01T05:27:41.726Z,58.57
2018-06-01T05:28:42.125Z,58.67
2018-06-01T05:29:41.842Z,58.57
2018-06-01T05:30:41.885Z,58.76
2018-06-01T05:31:41.860Z,58.76
2018-06-01T05:32:41.902Z,58.57
2018-06-01T05:33:42.010Z,58.67
2018-06-01T05:34:41.964Z,58.57
2018-06-01T05:35:42.355Z,58.76
2018-06-01T05:36:42.033Z,58.47
2018-06-01T05:37:42.070Z,58.86
2018-06-01T05:38:42.104Z,58.67
2018-06-01T05:39:42.176Z,58.57
2018-06-01T05:40:42.222Z,58.47
2018-06-01T05:41:42.291Z,58.95
2018-06-01T05:42:42.593Z,58.57
2018-06-01T05:43:42.327Z,58.57
2018-06-01T05:44:42.363Z,58.86
2018-06-01T05:45:42.419Z,58.76
2018-06-01T05:46:42.386Z,58.86
2018-06-01T05:47:42.417Z,59.25
2018-06-01T05:48:42.449Z,59.25
2018-06-01T05:49:42.865Z,59.05
2018-06-01T05:50:42.574Z,59.05
2018-06-01T05:51:42.556Z,59.15
2018-06-01T05:52:42.588Z,59.15
2018-06-01T05:53:42.626Z,59.25
2018-06-01T05:54:42.679Z,59.05
2018-06-01T05:55:42.744Z,59.15
2018-06-01T05:56:43.089Z,59.05
2018-06-01T05:57:42.811Z,58.86
2018-06-01T05:58:42.797Z,59.05
2018-06-01T05:59:42.957Z,59.05
2018-06-01T06:00:42.866Z,59.15
2018-06-01T06:01:42.908Z,58.95
2018-06-01T06:02:42.934Z,59.05
2018-06-01T06:03:43.322Z,59.25
2018-06-01T06:04:43.031Z,59.05
2018-06-01T06:05:43.040Z,59.05
2018-06-01T06:06:43.075Z,58.86
2018-06-01T06:07:43.106Z,59.05
2018-06-01T06:08:43.143Z,59.05
2018-06-01T06:09:43.581Z,59.05
2018-06-01T06:10:43.211Z,59.15
2018-06-01T06:11:43.250Z,58.95
2018-06-01T06:12:43.285Z,58.76
2018-06-01T06:13:43.317Z,58.89
2018-06-01T06:14:43.353Z,59.25
2018-06-01T06:15:43.688Z,58.98
2018-06-01T06:16:43.438Z,58.50
2018-06-01T06:17:43.537Z,59.05
2018-06-01T06:18:43.542Z,58.89
2018-06-01T06:19:43.600Z,58.50
2018-06-01T06:20:43.609Z,58.69
2018-06-01T06:21:43.896Z,58.69
2018-06-01T06:22:43.628Z,58.69
2018-06-01T06:23:43.719Z,58.50
2018-06-01T06:24:43.697Z,58.89
2018-06-01T06:25:43.802Z,58.89
2018-06-01T06:26:43.769Z,58.98
2018-06-01T06:27:44.110Z,58.89
2018-06-01T06:28:43.937Z,58.69
2018-06-01T06:29:43.875Z,58.31
2018-06-01T06:30:43.916Z,58.31
2018-06-01T06:31:43.944Z,57.72
2018-06-01T06:32:44.031Z,57.92
2018-06-01T06:33:44.380Z,58.01
2018-06-01T06:34:44.060Z,58.01
2018-06-01T06:35:45.589Z,58.21
2018-06-01T06:36:44.119Z,58.21
2018-06-01T06:37:44.190Z,58.21
2018-06-01T06:38:44.197Z,57.92
2018-06-01T06:39:44.578Z,58.01
2018-06-01T06:40:44.314Z,57.43
2018-06-01T06:41:44.316Z,57.43
2018-06-01T06:42:44.362Z,57.72
2018-06-01T06:43:44.366Z,57.82
2018-06-01T06:44:44.404Z,57.62
2018-06-01T06:45:44.785Z,57.62
2018-06-01T06:46:44.522Z,57.72
2018-06-01T06:47:44.562Z,57.72
2018-06-01T06:48:44.586Z,57.43
2018-06-01T06:49:44.588Z,57.43
2018-06-01T06:50:44.611Z,57.43
2018-06-01T06:51:44.947Z,57.23
2018-06-01T06:52:44.727Z,57.53
2018-06-01T06:53:44.719Z,57.82
2018-06-01T06:54:44.746Z,57.53
2018-06-01T06:55:44.881Z,57.43
2018-06-01T06:56:44.845Z,57.62
2018-06-01T06:57:45.205Z,57.53
2018-06-01T06:58:44.886Z,57.43
2018-06-01T06:59:44.932Z,57.23
2018-06-01T07:00:44.957Z,57.43
2018-06-01T07:01:45.096Z,57.33
2018-06-01T07:02:45.161Z,57.33
2018-06-01T07:03:45.416Z,57.43
2018-06-01T07:04:45.097Z,57.43
2018-06-01T07:05:45.132Z,57.14
2018-06-01T07:06:45.169Z,57.33
2018-06-01T07:07:45.202Z,57.26
2018-06-01T07:08:45.238Z,57.04
2018-06-01T07:09:45.622Z,57.07
2018-06-01T07:10:45.308Z,57.46
2018-06-01T07:11:45.346Z,57.17
2018-06-01T07:12:45.377Z,57.33
2018-06-01T07:13:45.418Z,57.36
2018-06-01T07:14:45.463Z,57.46
2018-06-01T07:15:47.842Z,57.17
2018-06-01T07:16:45.518Z,57.26
2018-06-01T07:17:45.604Z,57.07
2018-06-01T07:18:45.594Z,57.36
2018-06-01T07:19:45.693Z,57.26
2018-06-01T07:20:45.660Z,57.36
2018-06-01T07:21:45.999Z,57.17
2018-06-01T07:22:45.736Z,57.46
2018-06-01T07:23:45.765Z,56.97
2018-06-01T07:24:45.962Z,57.17
2018-06-01T07:25:45.837Z,57.36
2018-06-01T07:26:45.934Z,57.56
2018-06-01T07:27:46.284Z,57.56
2018-06-01T07:28:45.943Z,56.97
2018-06-01T07:29:45.993Z,57.56
2018-06-01T07:30:46.014Z,56.59
2018-06-01T07:31:46.048Z,57.26
2018-06-01T07:32:46.091Z,57.56
2018-06-01T07:33:46.122Z,57.46
2018-06-01T07:34:46.527Z,57.56
2018-06-01T07:35:46.198Z,57.10
2018-06-01T07:36:46.248Z,56.51
2018-06-01T07:37:46.329Z,56.81
2018-06-01T07:38:46.365Z,56.61
2018-06-01T07:39:46.384Z,56.90
2018-06-01T07:40:46.440Z,56.51
2018-06-01T07:41:46.755Z,56.71
2018-06-01T07:42:46.444Z,56.51
2018-06-01T07:43:46.535Z,56.51
2018-06-01T07:44:46.532Z,56.22
2018-06-01T07:45:46.545Z,56.71
2018-06-01T07:46:46.582Z,56.41
2018-06-01T07:47:46.616Z,56.61
2018-06-01T07:48:47.058Z,56.03
2018-06-01T07:49:46.695Z,56.61
2018-06-01T07:50:46.725Z,56.90
2018-06-01T07:51:46.763Z,56.51
2018-06-01T07:52:46.808Z,56.61
2018-06-01T07:53:46.884Z,56.71
2018-06-01T07:54:46.915Z,56.41
2018-06-01T07:55:47.259Z,56.41
2018-06-01T07:56:46.937Z,56.71
2018-06-01T07:57:46.999Z,56.51
2018-06-01T07:58:47.007Z,56.71
2018-06-01T07:59:47.045Z,56.71
2018-06-01T08:00:47.092Z,56.81
2018-06-01T08:01:47.119Z,56.61
2018-06-01T08:02:47.507Z,56.41
2018-06-01T08:03:47.197Z,56.51
2018-06-01T08:04:47.270Z,56.71
2018-06-01T08:05:47.260Z,56.51
2018-06-01T08:06:47.298Z,56.32
2018-06-01T08:07:47.378Z,56.51
2018-06-01T08:08:47.413Z,56.61
2018-06-01T08:09:47.756Z,56.71
2018-06-01T08:10:47.539Z,56.61
2018-06-01T08:11:47.477Z,56.51
2018-06-01T08:12:47.538Z,56.61
2018-06-01T08:13:47.555Z,56.41
2018-06-01T08:14:47.622Z,56.41
2018-06-01T08:15:47.673Z,56.32
2018-06-01T08:16:48.008Z,56.41
2018-06-01T08:17:47.743Z,56.61
2018-06-01T08:18:47.748Z,56.12
2018-06-01T08:19:47.763Z,56.32
2018-06-01T08:20:47.798Z,56.61
2018-06-01T08:21:47.877Z,57.10
2018-06-01T08:22:47.863Z,56.61
2018-06-01T08:23:48.253Z,56.32
2018-06-01T08:24:47.935Z,56.81
2018-06-01T08:25:47.968Z,56.81
2018-06-01T08:26:48.017Z,56.61
2018-06-01T08:27:48.040Z,56.81
2018-06-01T08:28:48.099Z,56.61
2018-06-01T08:29:48.114Z,56.61
2018-06-01T08:30:48.451Z,57.00
2018-06-01T08:31:48.225Z,56.22
2018-06-01T08:32:48.220Z,56.61
2018-06-01T08:33:48.258Z,56.12
2018-06-01T08:34:48.363Z,56.32
2018-06-01T08:35:48.336Z,55.93
2018-06-01T08:36:48.417Z,56.32
2018-06-01T08:37:48.759Z,56.22
2018-06-01T08:38:48.512Z,56.32
2018-06-01T08:39:48.598Z,56.12
2018-06-01T08:40:48.523Z,56.71
2018-06-01T08:41:48.538Z,56.12
2018-06-01T08:42:48.582Z,56.03
2018-06-01T08:43:48.636Z,56.81
2018-06-01T08:44:49.017Z,56.32
2018-06-01T08:45:48.687Z,56.32
2018-06-01T08:46:48.739Z,56.03
2018-06-01T08:47:48.765Z,56.03
2018-06-01T08:48:48.789Z,55.83
2018-06-01T08:49:48.867Z,56.12
2018-06-01T08:50:48.961Z,56.03
2018-06-01T08:51:50.247Z,56.03
2018-06-01T08:52:48.982Z,56.22
2018-06-01T08:53:49.023Z,56.12
2018-06-01T08:54:49.034Z,56.03
2018-06-01T08:55:49.064Z,55.83
2018-06-01T08:56:49.086Z,55.93
2018-06-01T08:57:49.200Z,55.44
2018-06-01T08:58:49.498Z,55.74
2018-06-01T08:59:49.230Z,55.44
2018-06-01T09:00:49.221Z,55.74
2018-06-01T09:01:49.283Z,55.54
2018-06-01T09:02:49.292Z,55.25
2018-06-01T09:03:49.326Z,55.74
2018-06-01T09:04:49.719Z,56.03
2018-06-01T09:05:49.475Z,55.83
2018-06-01T09:06:49.792Z,56.03
2018-06-01T09:07:49.481Z,55.83
2018-06-01T09:08:49.546Z,56.15
2018-06-01T09:09:49.543Z,56.03
2018-06-01T09:10:49.879Z,56.03
2018-06-01T09:11:49.623Z,55.83
2018-06-01T09:12:49.655Z,55.93
2018-06-01T09:13:49.770Z,55.83
2018-06-01T09:14:49.724Z,55.74
2018-06-01T09:15:49.770Z,55.93
2018-06-01T09:16:50.203Z,55.83
2018-06-01T09:17:49.826Z,55.93
2018-06-01T09:18:49.874Z,55.93
2018-06-01T09:19:49.903Z,55.83
2018-06-01T09:20:49.984Z,55.64
2018-06-01T09:21:49.969Z,55.74
2018-06-01T09:22:50.363Z,55.54
2018-06-01T09:23:50.039Z,55.74
2018-06-01T09:24:50.128Z,55.35
2018-06-01T09:25:50.171Z,55.35
2018-06-01T09:26:50.144Z,55.74
2018-06-01T09:27:50.240Z,55.44
2018-06-01T09:28:50.617Z,55.35
2018-06-01T09:29:50.253Z,55.74
2018-06-01T09:30:50.376Z,55.54
2018-06-01T09:31:50.331Z,55.54
2018-06-01T09:32:50.407Z,55.44
2018-06-01T09:33:50.403Z,55.64
2018-06-01T09:34:50.783Z,55.44
2018-06-01T09:35:50.465Z,55.64
2018-06-01T09:36:50.501Z,55.64
2018-06-01T09:37:50.545Z,55.44
2018-06-01T09:38:50.572Z,55.35
2018-06-01T09:39:50.610Z,55.44
2018-06-01T09:40:51.002Z,55.44
2018-06-01T09:41:50.678Z,55.35
2018-06-01T09:42:50.776Z,55.35
2018-06-01T09:43:50.746Z,55.54
2018-06-01T09:44:50.784Z,55.44
2018-06-01T09:45:50.821Z,55.44
2018-06-01T09:46:51.207Z,55.74
2018-06-01T09:47:50.943Z,55.64
2018-06-01T09:48:50.979Z,55.64
2018-06-01T09:49:51.062Z,55.80
2018-06-01T09:50:51.047Z,55.64
2018-06-01T09:51:51.033Z,55.41
2018-06-01T09:52:51.422Z,55.35
2018-06-01T09:53:51.103Z,55.71
2018-06-01T09:54:51.156Z,55.32
2018-06-01T09:55:51.223Z,55.71
2018-06-01T09:56:51.258Z,55.71
2018-06-01T09:57:51.251Z,55.80
2018-06-01T09:58:51.627Z,55.71
2018-06-01T09:59:51.312Z,55.90
2018-06-01T10:00:51.363Z,55.80
2018-06-01T10:01:51.439Z,55.71
2018-06-01T10:02:51.418Z,56.20
2018-06-01T10:03:51.558Z,55.90
2018-06-01T10:04:51.843Z,55.80
2018-06-01T10:05:51.541Z,55.90
2018-06-01T10:06:51.561Z,56.00
2018-06-01T10:07:51.678Z,56.10
2018-06-01T10:08:51.668Z,56.29
2018-06-01T10:09:51.725Z,55.71
2018-06-01T10:10:52.074Z,55.51
2018-06-01T10:11:51.795Z,55.80
2018-06-01T10:12:51.772Z,55.80
2018-06-01T10:13:51.809Z,55.71
2018-06-01T10:14:51.845Z,55.80
2018-06-01T10:15:51.932Z,55.80
2018-06-01T10:16:51.917Z,55.80
2018-06-01T10:17:52.305Z,56.10
2018-06-01T10:18:51.981Z,55.80
2018-06-01T10:19:52.022Z,55.90
2018-06-01T10:20:52.075Z,56.29
2018-06-01T10:21:52.088Z,56.00
2018-06-01T10:22:52.128Z,56.77
2018-06-01T10:23:52.161Z,56.59
2018-06-01T10:24:52.503Z,56.39
2018-06-01T10:25:52.303Z,56.10
2018-06-01T10:26:52.265Z,56.39
2018-06-01T10:27:52.307Z,56.59
2018-06-01T10:28:52.348Z,56.39
2018-06-01T10:29:52.380Z,56.59
2018-06-01T10:30:52.461Z,56.39
2018-06-01T10:31:52.790Z,56.49
2018-06-01T10:32:52.538Z,56.59
2018-06-01T10:33:52.514Z,56.39
2018-06-01T10:34:52.585Z,56.39
2018-06-01T10:35:52.633Z,56.10
2018-06-01T10:36:52.624Z,56.59
2018-06-01T10:37:52.653Z,56.39
2018-06-01T10:38:53.041Z,56.39
2018-06-01T10:39:52.857Z,56.29
2018-06-01T10:40:52.760Z,56.39
2018-06-01T10:41:52.795Z,56.20
2018-06-01T10:42:52.832Z,56.59
2018-06-01T10:43:52.913Z,56.59
2018-06-01T10:44:52.905Z,56.39
2018-06-01T10:45:53.288Z,56.77
2018-06-01T10:46:53.018Z,56.59
2018-06-01T10:47:53.004Z,56.59
2018-06-01T10:48:53.038Z,56.39
2018-06-01T10:49:53.084Z,56.29
2018-06-01T10:50:53.165Z,56.39
2018-06-01T10:51:53.153Z,56.59
2018-06-01T10:52:53.484Z,56.20
2018-06-01T10:53:53.263Z,56.49
2018-06-01T10:54:53.334Z,56.77
2018-06-01T10:55:53.337Z,56.49
2018-06-01T10:56:53.327Z,56.20
2018-06-01T10:57:53.356Z,56.10
2018-06-01T10:58:53.392Z,56.49
2018-06-01T10:59:53.775Z,56.39
2018-06-01T11:00:53.463Z,56.39
2018-06-01T11:01:53.499Z,56.49
2018-06-01T11:02:53.588Z,56.39
2018-06-01T11:03:53.585Z,56.49
2018-06-01T11:04:53.604Z,56.49
2018-06-01T11:05:53.651Z,56.68
2018-06-01T11:06:54.022Z,56.29
2018-06-01T11:07:53.757Z,56.49
2018-06-01T11:08:53.791Z,56.49
2018-06-01T11:09:53.851Z,56.59
2018-06-01T11:10:53.890Z,56.39
2018-06-01T11:11:53.848Z,56.39
2018-06-01T11:12:53.890Z,56.39
2018-06-01T11:13:54.274Z,56.59
2018-06-01T11:14:54.001Z,56.39
2018-06-01T11:15:54.036Z,56.29
2018-06-01T11:16:54.023Z,56.10
2018-06-01T11:17:54.098Z,56.39
2018-06-01T11:18:54.129Z,56.49
2018-06-01T11:19:54.128Z,56.29
2018-06-01T11:20:54.523Z,56.68
2018-06-01T11:21:54.252Z,56.20
2018-06-01T11:22:54.309Z,56.39
2018-06-01T11:23:54.340Z,56.59
2018-06-01T11:24:54.373Z,56.20
2018-06-01T11:25:54.391Z,56.10
2018-06-01T11:26:54.417Z,56.77
2018-06-01T11:27:54.780Z,56.59
2018-06-01T11:28:54.504Z,56.68
2018-06-01T11:29:54.478Z,56.49
2018-06-01T11:30:54.616Z,56.68
2018-06-01T11:31:54.547Z,56.49
2018-06-01T11:32:54.612Z,56.59
2018-06-01T11:33:54.624Z,56.59
2018-06-01T11:34:55.650Z,56.77
2018-06-01T11:35:54.739Z,56.49
2018-06-01T11:36:54.731Z,56.20
2018-06-01T11:37:54.846Z,56.10
2018-06-01T11:38:54.817Z,56.10
2018-06-01T11:39:54.830Z,56.68
2018-06-01T11:40:54.864Z,56.59
2018-06-01T11:41:55.251Z,56.59
2018-06-01T11:42:54.961Z,56.97
2018-06-01T11:43:54.972Z,56.68
2018-06-01T11:44:55.006Z,57.07
2018-06-01T11:45:55.096Z,56.59
2018-06-01T11:46:55.077Z,56.49
2018-06-01T11:47:55.473Z,57.07
2018-06-01T11:48:55.148Z,56.59
2018-06-01T11:49:55.238Z,56.87
2018-06-01T11:50:55.220Z,56.77
2018-06-01T11:51:55.248Z,56.59
2018-06-01T11:52:55.456Z,56.59
2018-06-01T11:53:55.671Z,56.49
2018-06-01T11:54:55.366Z,56.59
2018-06-01T11:55:55.392Z,57.07
2018-06-01T11:56:55.525Z,56.87
2018-06-01T11:57:55.461Z,56.59
2018-06-01T11:58:55.498Z,56.68
2018-06-01T11:59:55.885Z,56.77
2018-06-01T12:00:55.599Z,56.77
2018-06-01T12:01:55.622Z,56.77
2018-06-01T12:02:55.696Z,56.59
2018-06-01T12:03:55.694Z,56.77
2018-06-01T12:04:55.714Z,56.77
2018-06-01T12:05:56.102Z,56.77
2018-06-01T12:06:55.775Z,56.77
2018-06-01T12:07:55.829Z,56.87
2018-06-01T12:08:55.849Z,56.49
2018-06-01T12:09:55.883Z,56.59
2018-06-01T12:10:55.945Z,56.59
2018-06-01T12:11:56.313Z,56.87
2018-06-01T12:12:55.986Z,56.97
2018-06-01T12:13:56.073Z,56.59
2018-06-01T12:14:56.058Z,56.68
2018-06-01T12:15:56.099Z,56.59
2018-06-01T12:16:56.133Z,56.68
2018-06-01T12:17:56.515Z,56.59
2018-06-01T12:18:56.201Z,56.68
2018-06-01T12:19:56.285Z,56.87
2018-06-01T12:20:56.273Z,56.59
2018-06-01T12:21:56.310Z,56.77
2018-06-01T12:22:56.346Z,57.07
2018-06-01T12:23:56.724Z,56.77
2018-06-01T12:24:56.467Z,56.65
2018-06-01T12:25:56.499Z,56.97
2018-06-01T12:26:56.476Z,56.56
2018-06-01T12:27:56.511Z,56.77
2018-06-01T12:28:56.546Z,56.77
2018-06-01T12:29:56.662Z,56.77
2018-06-01T12:30:56.639Z,56.77
2018-06-01T12:31:56.649Z,56.68
2018-06-01T12:32:56.686Z,56.75
2018-06-01T12:33:56.736Z,56.77
2018-06-01T12:34:56.757Z,56.65
2018-06-01T12:35:57.177Z,56.75
2018-06-01T12:36:56.840Z,56.68
2018-06-01T12:37:56.916Z,56.68
2018-06-01T12:38:56.951Z,56.75
2018-06-01T12:39:57.017Z,56.65
2018-06-01T12:40:57.057Z,56.65
2018-06-01T12:41:57.355Z,56.56
2018-06-01T12:42:57.086Z,57.53
2018-06-01T12:43:57.132Z,56.75
2018-06-01T12:44:57.104Z,56.95
2018-06-01T12:45:57.140Z,56.65
2018-06-01T12:46:57.175Z,57.53
2018-06-01T12:47:57.564Z,57.04
2018-06-01T12:48:57.247Z,56.65
2018-06-01T12:49:57.286Z,56.95
2018-06-01T12:50:57.312Z,56.95
2018-06-01T12:51:57.348Z,56.95
2018-06-01T12:52:57.391Z,57.33